KPZQ

Details ICAO KPZQ
Name PRESQUE ISLE CO
Region United States
Timezone America/Detroit (UTC-4.0)
Plans Departing 1
Arriving 2
Stats Elevation 670 ft / 204 m (AMSL)
Location 45.407095° -83.812866°
Runways 1
Magnetic Variation 7.679° W
Sunrise 2018-05-25 09:56:33 UTC / 2018-05-25 05:56:33 Local
Sunset 2018-05-26 01:10:44 UTC / 2018-05-25 21:10:44 Local
Advertisement - Login to hide

Runways

ID Width Length Bearing (true) Bearing (mag) Surface Threshold Offset Overrun Length
09 75 ft / 23 m 4,095 ft / 1,248 m 88.22° 95.90° Asphalt 220 ft / 67 m 0 ft / 0 m
27 75 ft / 23 m 4,095 ft / 1,248 m 268.23° 275.91° Asphalt 380 ft / 116 m 0 ft / 0 m

Map

Weather


0- 5 10 15 20 25 30 35+ Temperature / ° C

Clouds and Precipitation
Forecast for 2018-05-25 06:00 UTC. Updated 2 hours ago

Ground ~20,000 ft ~40,000 ft Winds

METAR

KPZQ 250715Z AUTO 00000KT 10SM CLR 18/10 A2993 RMK AO2 T01790102

TAF

Not found

Frequencies

Unicom 122.90 MHz CTAF
Approach 128.42 MHz ALPENA APP/DEP
Warning: Do not use this data for real-world aviation or navigation. No guarantee of current accuracy is given.